sensor_id;sensor_type;location;lat;lon;timestamp;temperature;humidity
55785;DHT22;41709;52.536;5.688;2023-08-08T00:01:42;14.50;92.90
55785;DHT22;41709;52.536;5.688;2023-08-08T00:04:12;14.50;92.90
55785;DHT22;41709;52.536;5.688;2023-08-08T00:06:37;14.60;92.90
55785;DHT22;41709;52.536;5.688;2023-08-08T00:09:04;14.60;92.90
55785;DHT22;41709;52.536;5.688;2023-08-08T00:11:30;14.60;93.00
55785;DHT22;41709;52.536;5.688;2023-08-08T00:13:56;14.60;93.00
55785;DHT22;41709;52.536;5.688;2023-08-08T00:16:22;14.50;93.20
55785;DHT22;41709;52.536;5.688;2023-08-08T00:18:48;14.50;93.30
55785;DHT22;41709;52.536;5.688;2023-08-08T00:21:16;14.50;93.30
55785;DHT22;41709;52.536;5.688;2023-08-08T00:23:41;14.50;93.40
55785;DHT22;41709;52.536;5.688;2023-08-08T00:26:07;14.50;93.40
55785;DHT22;41709;52.536;5.688;2023-08-08T00:28:33;14.50;93.50
55785;DHT22;41709;52.536;5.688;2023-08-08T00:30:58;14.50;93.50
55785;DHT22;41709;52.536;5.688;2023-08-08T00:33:24;14.60;93.50
55785;DHT22;41709;52.536;5.688;2023-08-08T00:35:49;14.50;93.50
55785;DHT22;41709;52.536;5.688;2023-08-08T00:38:15;14.50;93.60
55785;DHT22;41709;52.536;5.688;2023-08-08T00:40:42;14.50;93.70
55785;DHT22;41709;52.536;5.688;2023-08-08T00:43:07;14.50;93.70
55785;DHT22;41709;52.536;5.688;2023-08-08T00:45:34;14.50;93.70
55785;DHT22;41709;52.536;5.688;2023-08-08T00:48:00;14.60;93.70
55785;DHT22;41709;52.536;5.688;2023-08-08T00:50:25;14.60;93.70
55785;DHT22;41709;52.536;5.688;2023-08-08T00:52:52;14.50;93.90
55785;DHT22;41709;52.536;5.688;2023-08-08T00:55:18;14.60;93.90
55785;DHT22;41709;52.536;5.688;2023-08-08T00:57:43;14.60;93.90
55785;DHT22;41709;52.536;5.688;2023-08-08T01:00:09;14.60;94.00
55785;DHT22;41709;52.536;5.688;2023-08-08T01:02:36;14.60;94.30
55785;DHT22;41709;52.536;5.688;2023-08-08T01:05:02;14.60;94.10
55785;DHT22;41709;52.536;5.688;2023-08-08T01:07:40;14.60;94.10
55785;DHT22;41709;52.536;5.688;2023-08-08T01:10:11;14.60;94.10
55785;DHT22;41709;52.536;5.688;2023-08-08T01:12:50;14.60;94.30
55785;DHT22;41709;52.536;5.688;2023-08-08T01:15:17;14.60;94.40
55785;DHT22;41709;52.536;5.688;2023-08-08T01:17:44;14.70;94.50
55785;DHT22;41709;52.536;5.688;2023-08-08T01:20:11;14.80;94.30
55785;DHT22;41709;52.536;5.688;2023-08-08T01:22:56;14.70;94.30
55785;DHT22;41709;52.536;5.688;2023-08-08T01:25:24;14.70;94.30
55785;DHT22;41709;52.536;5.688;2023-08-08T01:27:49;14.70;94.30
55785;DHT22;41709;52.536;5.688;2023-08-08T01:30:15;14.70;94.40
55785;DHT22;41709;52.536;5.688;2023-08-08T01:32:40;14.60;94.40
55785;DHT22;41709;52.536;5.688;2023-08-08T01:35:07;14.70;94.40
55785;DHT22;41709;52.536;5.688;2023-08-08T01:37:36;14.70;94.30
55785;DHT22;41709;52.536;5.688;2023-08-08T01:40:06;14.70;94.30
55785;DHT22;41709;52.536;5.688;2023-08-08T01:42:32;14.70;94.30
55785;DHT22;41709;52.536;5.688;2023-08-08T01:44:58;14.70;94.30
55785;DHT22;41709;52.536;5.688;2023-08-08T01:47:24;14.70;94.30
55785;DHT22;41709;52.536;5.688;2023-08-08T01:49:50;14.70;94.20
55785;DHT22;41709;52.536;5.688;2023-08-08T01:52:15;14.70;94.20
55785;DHT22;41709;52.536;5.688;2023-08-08T01:54:41;14.70;94.20
55785;DHT22;41709;52.536;5.688;2023-08-08T01:57:08;14.70;94.10
55785;DHT22;41709;52.536;5.688;2023-08-08T01:59:33;14.70;94.10
55785;DHT22;41709;52.536;5.688;2023-08-08T02:01:59;14.70;94.00
55785;DHT22;41709;52.536;5.688;2023-08-08T02:04:24;14.70;94.00
55785;DHT22;41709;52.536;5.688;2023-08-08T02:06:50;14.70;94.00
55785;DHT22;41709;52.536;5.688;2023-08-08T02:09:15;14.60;93.90
55785;DHT22;41709;52.536;5.688;2023-08-08T02:11:41;14.60;93.90
55785;DHT22;41709;52.536;5.688;2023-08-08T02:14:07;14.60;93.90
55785;DHT22;41709;52.536;5.688;2023-08-08T02:16:33;14.60;93.80
55785;DHT22;41709;52.536;5.688;2023-08-08T02:19:00;14.60;93.70
55785;DHT22;41709;52.536;5.688;2023-08-08T02:21:26;14.70;93.50
55785;DHT22;41709;52.536;5.688;2023-08-08T02:23:51;14.70;93.40
55785;DHT22;41709;52.536;5.688;2023-08-08T02:26:17;14.70;93.30
55785;DHT22;41709;52.536;5.688;2023-08-08T02:28:42;14.70;93.30
55785;DHT22;41709;52.536;5.688;2023-08-08T02:31:08;14.70;93.10
55785;DHT22;41709;52.536;5.688;2023-08-08T02:33:34;14.70;93.00
55785;DHT22;41709;52.536;5.688;2023-08-08T02:36:00;14.80;92.90
55785;DHT22;41709;52.536;5.688;2023-08-08T02:38:25;14.80;92.70
55785;DHT22;41709;52.536;5.688;2023-08-08T02:40:51;14.80;92.60
55785;DHT22;41709;52.536;5.688;2023-08-08T02:43:16;14.80;92.50
55785;DHT22;41709;52.536;5.688;2023-08-08T02:45:42;14.80;92.50
55785;DHT22;41709;52.536;5.688;2023-08-08T02:48:08;14.80;92.40
55785;DHT22;41709;52.536;5.688;2023-08-08T02:50:34;14.80;92.30
55785;DHT22;41709;52.536;5.688;2023-08-08T02:52:59;14.70;92.20
55785;DHT22;41709;52.536;5.688;2023-08-08T02:55:25;14.80;92.10
55785;DHT22;41709;52.536;5.688;2023-08-08T02:57:51;14.70;91.90
55785;DHT22;41709;52.536;5.688;2023-08-08T03:00:16;14.70;91.90
55785;DHT22;41709;52.536;5.688;2023-08-08T03:02:42;14.70;91.70
55785;DHT22;41709;52.536;5.688;2023-08-08T03:05:11;14.70;91.60
55785;DHT22;41709;52.536;5.688;2023-08-08T03:07:36;14.70;91.50
55785;DHT22;41709;52.536;5.688;2023-08-08T03:10:02;14.70;91.30
55785;DHT22;41709;52.536;5.688;2023-08-08T03:12:28;14.70;91.10
55785;DHT22;41709;52.536;5.688;2023-08-08T03:14:54;14.70;91.10
55785;DHT22;41709;52.536;5.688;2023-08-08T03:17:19;14.70;91.10
55785;DHT22;41709;52.536;5.688;2023-08-08T03:19:45;14.70;90.90
55785;DHT22;41709;52.536;5.688;2023-08-08T03:22:10;14.70;90.70
55785;DHT22;41709;52.536;5.688;2023-08-08T03:24:36;14.70;90.50
55785;DHT22;41709;52.536;5.688;2023-08-08T03:27:01;14.80;90.50
55785;DHT22;41709;52.536;5.688;2023-08-08T03:29:27;14.80;90.60
55785;DHT22;41709;52.536;5.688;2023-08-08T03:31:53;14.80;90.60
55785;DHT22;41709;52.536;5.688;2023-08-08T03:34:18;14.70;90.70
55785;DHT22;41709;52.536;5.688;2023-08-08T03:36:44;14.80;90.70
55785;DHT22;41709;52.536;5.688;2023-08-08T03:39:13;14.80;90.70
55785;DHT22;41709;52.536;5.688;2023-08-08T03:41:39;14.70;90.70
55785;DHT22;41709;52.536;5.688;2023-08-08T03:44:05;14.80;90.70
55785;DHT22;41709;52.536;5.688;2023-08-08T03:46:30;14.90;90.70
55785;DHT22;41709;52.536;5.688;2023-08-08T03:48:56;14.90;90.50
55785;DHT22;41709;52.536;5.688;2023-08-08T03:51:22;14.90;90.50
55785;DHT22;41709;52.536;5.688;2023-08-08T03:53:47;14.90;90.50
55785;DHT22;41709;52.536;5.688;2023-08-08T03:56:13;14.90;90.50
55785;DHT22;41709;52.536;5.688;2023-08-08T03:58:39;14.90;90.70
55785;DHT22;41709;52.536;5.688;2023-08-08T04:01:04;14.90;90.90
55785;DHT22;41709;52.536;5.688;2023-08-08T04:03:30;15.00;90.70
55785;DHT22;41709;52.536;5.688;2023-08-08T04:05:55;15.00;90.50
55785;DHT22;41709;52.536;5.688;2023-08-08T04:08:21;15.00;90.50
55785;DHT22;41709;52.536;5.688;2023-08-08T04:10:47;15.00;90.40
55785;DHT22;41709;52.536;5.688;2023-08-08T04:13:12;15.00;90.50
55785;DHT22;41709;52.536;5.688;2023-08-08T04:15:38;15.00;90.50
55785;DHT22;41709;52.536;5.688;2023-08-08T04:18:04;15.00;90.40
55785;DHT22;41709;52.536;5.688;2023-08-08T04:20:32;15.00;90.50
55785;DHT22;41709;52.536;5.688;2023-08-08T04:22:58;15.10;90.70
55785;DHT22;41709;52.536;5.688;2023-08-08T04:25:23;15.10;90.30
55785;DHT22;41709;52.536;5.688;2023-08-08T04:27:49;15.00;90.30
55785;DHT22;41709;52.536;5.688;2023-08-08T04:30:15;15.00;90.30
55785;DHT22;41709;52.536;5.688;2023-08-08T04:32:40;15.00;90.20
55785;DHT22;41709;52.536;5.688;2023-08-08T04:35:06;15.00;90.20
55785;DHT22;41709;52.536;5.688;2023-08-08T04:37:31;15.00;90.20
55785;DHT22;41709;52.536;5.688;2023-08-08T04:39:57;15.00;90.20
55785;DHT22;41709;52.536;5.688;2023-08-08T04:42:23;14.90;90.20
55785;DHT22;41709;52.536;5.688;2023-08-08T04:44:48;14.90;90.30
55785;DHT22;41709;52.536;5.688;2023-08-08T04:47:14;14.90;90.30
55785;DHT22;41709;52.536;5.688;2023-08-08T04:49:39;14.90;90.30
55785;DHT22;41709;52.536;5.688;2023-08-08T04:52:05;14.90;90.20
55785;DHT22;41709;52.536;5.688;2023-08-08T04:54:31;14.90;90.20
55785;DHT22;41709;52.536;5.688;2023-08-08T04:56:56;14.80;90.30
55785;DHT22;41709;52.536;5.688;2023-08-08T04:59:23;14.80;90.10
55785;DHT22;41709;52.536;5.688;2023-08-08T05:01:49;14.80;90.10
55785;DHT22;41709;52.536;5.688;2023-08-08T05:04:14;14.80;90.10
55785;DHT22;41709;52.536;5.688;2023-08-08T05:06:40;14.90;90.20
55785;DHT22;41709;52.536;5.688;2023-08-08T05:09:05;14.90;90.00
55785;DHT22;41709;52.536;5.688;2023-08-08T05:11:35;14.90;90.00
55785;DHT22;41709;52.536;5.688;2023-08-08T05:14:00;15.00;89.80
55785;DHT22;41709;52.536;5.688;2023-08-08T05:16:26;15.00;89.70
55785;DHT22;41709;52.536;5.688;2023-08-08T05:18:51;15.00;89.40
55785;DHT22;41709;52.536;5.688;2023-08-08T05:21:17;14.90;89.50
55785;DHT22;41709;52.536;5.688;2023-08-08T05:23:42;15.10;89.30
55785;DHT22;41709;52.536;5.688;2023-08-08T05:26:09;15.00;89.10
55785;DHT22;41709;52.536;5.688;2023-08-08T05:28:34;15.00;88.90
55785;DHT22;41709;52.536;5.688;2023-08-08T05:31:00;15.00;88.90
55785;DHT22;41709;52.536;5.688;2023-08-08T05:33:26;15.10;88.80
55785;DHT22;41709;52.536;5.688;2023-08-08T05:35:52;15.20;89.20
55785;DHT22;41709;52.536;5.688;2023-08-08T05:38:17;15.20;89.00
55785;DHT22;41709;52.536;5.688;2023-08-08T05:40:43;15.20;88.60
55785;DHT22;41709;52.536;5.688;2023-08-08T05:43:08;15.30;88.70
55785;DHT22;41709;52.536;5.688;2023-08-08T05:45:34;15.30;88.80
55785;DHT22;41709;52.536;5.688;2023-08-08T05:47:59;15.40;88.70
55785;DHT22;41709;52.536;5.688;2023-08-08T05:50:27;15.40;89.00
55785;DHT22;41709;52.536;5.688;2023-08-08T05:52:53;15.40;89.10
55785;DHT22;41709;52.536;5.688;2023-08-08T05:55:18;15.40;89.20
55785;DHT22;41709;52.536;5.688;2023-08-08T05:57:44;15.40;89.30
55785;DHT22;41709;52.536;5.688;2023-08-08T06:00:10;15.30;89.10
55785;DHT22;41709;52.536;5.688;2023-08-08T06:02:37;15.30;89.20
55785;DHT22;41709;52.536;5.688;2023-08-08T06:05:03;15.30;89.00
55785;DHT22;41709;52.536;5.688;2023-08-08T06:07:29;15.30;89.10
55785;DHT22;41709;52.536;5.688;2023-08-08T06:09:55;15.30;89.20
55785;DHT22;41709;52.536;5.688;2023-08-08T06:12:20;15.50;88.80
55785;DHT22;41709;52.536;5.688;2023-08-08T06:14:46;15.40;88.60
55785;DHT22;41709;52.536;5.688;2023-08-08T06:17:12;15.50;88.60
55785;DHT22;41709;52.536;5.688;2023-08-08T06:19:38;15.50;88.70
55785;DHT22;41709;52.536;5.688;2023-08-08T06:22:03;15.60;88.90
55785;DHT22;41709;52.536;5.688;2023-08-08T06:24:29;15.60;88.60
55785;DHT22;41709;52.536;5.688;2023-08-08T06:26:54;15.60;88.60
55785;DHT22;41709;52.536;5.688;2023-08-08T06:29:20;15.70;88.50
55785;DHT22;41709;52.536;5.688;2023-08-08T06:31:46;15.80;87.60
55785;DHT22;41709;52.536;5.688;2023-08-08T06:34:11;15.80;87.20
55785;DHT22;41709;52.536;5.688;2023-08-08T06:36:37;15.80;87.00
55785;DHT22;41709;52.536;5.688;2023-08-08T06:39:02;15.90;86.30
55785;DHT22;41709;52.536;5.688;2023-08-08T06:41:28;15.80;86.20
55785;DHT22;41709;52.536;5.688;2023-08-08T06:43:54;15.90;86.60
55785;DHT22;41709;52.536;5.688;2023-08-08T06:46:19;15.90;86.70
55785;DHT22;41709;52.536;5.688;2023-08-08T06:48:46;15.80;86.60
55785;DHT22;41709;52.536;5.688;2023-08-08T06:51:12;15.90;86.70
55785;DHT22;41709;52.536;5.688;2023-08-08T06:53:38;16.00;86.80
55785;DHT22;41709;52.536;5.688;2023-08-08T06:56:03;16.00;86.10
55785;DHT22;41709;52.536;5.688;2023-08-08T06:58:29;16.10;85.50
55785;DHT22;41709;52.536;5.688;2023-08-08T07:00:55;16.10;85.60
55785;DHT22;41709;52.536;5.688;2023-08-08T07:03:20;16.00;85.50
55785;DHT22;41709;52.536;5.688;2023-08-08T07:05:46;16.10;85.00
55785;DHT22;41709;52.536;5.688;2023-08-08T07:08:13;16.20;85.60
55785;DHT22;41709;52.536;5.688;2023-08-08T07:10:38;16.20;85.10
55785;DHT22;41709;52.536;5.688;2023-08-08T07:13:04;16.10;84.90
55785;DHT22;41709;52.536;5.688;2023-08-08T07:15:29;16.10;85.60
55785;DHT22;41709;52.536;5.688;2023-08-08T07:17:56;16.20;85.80
55785;DHT22;41709;52.536;5.688;2023-08-08T07:20:21;16.40;85.80
55785;DHT22;41709;52.536;5.688;2023-08-08T07:22:48;16.40;85.60
55785;DHT22;41709;52.536;5.688;2023-08-08T07:25:13;16.50;83.90
55785;DHT22;41709;52.536;5.688;2023-08-08T07:27:39;16.40;83.10
55785;DHT22;41709;52.536;5.688;2023-08-08T07:30:05;16.50;84.00
55785;DHT22;41709;52.536;5.688;2023-08-08T07:32:33;16.50;83.90
55785;DHT22;41709;52.536;5.688;2023-08-08T07:34:58;16.60;83.40
55785;DHT22;41709;52.536;5.688;2023-08-08T07:37:26;16.60;84.00
55785;DHT22;41709;52.536;5.688;2023-08-08T07:39:52;16.50;83.50
55785;DHT22;41709;52.536;5.688;2023-08-08T07:42:17;16.60;82.70
55785;DHT22;41709;52.536;5.688;2023-08-08T07:44:43;16.60;83.00
55785;DHT22;41709;52.536;5.688;2023-08-08T07:47:08;16.60;83.20
55785;DHT22;41709;52.536;5.688;2023-08-08T07:49:34;16.60;83.10
55785;DHT22;41709;52.536;5.688;2023-08-08T07:52:00;16.60;83.20
55785;DHT22;41709;52.536;5.688;2023-08-08T07:54:25;16.60;82.40
55785;DHT22;41709;52.536;5.688;2023-08-08T07:56:51;16.60;83.00
55785;DHT22;41709;52.536;5.688;2023-08-08T07:59:16;16.60;83.50
55785;DHT22;41709;52.536;5.688;2023-08-08T08:01:42;16.60;83.80
55785;DHT22;41709;52.536;5.688;2023-08-08T08:04:07;16.80;83.30
55785;DHT22;41709;52.536;5.688;2023-08-08T08:06:33;16.70;82.80
55785;DHT22;41709;52.536;5.688;2023-08-08T08:08:59;16.70;83.50
55785;DHT22;41709;52.536;5.688;2023-08-08T08:11:24;16.70;83.60
55785;DHT22;41709;52.536;5.688;2023-08-08T08:13:50;16.80;83.80
55785;DHT22;41709;52.536;5.688;2023-08-08T08:16:15;16.80;81.60
55785;DHT22;41709;52.536;5.688;2023-08-08T08:18:41;16.90;81.60
55785;DHT22;41709;52.536;5.688;2023-08-08T08:21:07;16.90;82.90
55785;DHT22;41709;52.536;5.688;2023-08-08T08:23:33;16.90;82.10
55785;DHT22;41709;52.536;5.688;2023-08-08T08:25:59;16.90;82.90
55785;DHT22;41709;52.536;5.688;2023-08-08T08:28:26;16.90;83.00
55785;DHT22;41709;52.536;5.688;2023-08-08T08:30:52;16.80;83.30
55785;DHT22;41709;52.536;5.688;2023-08-08T08:33:17;16.80;83.50
55785;DHT22;41709;52.536;5.688;2023-08-08T08:35:43;16.90;82.40
55785;DHT22;41709;52.536;5.688;2023-08-08T08:38:09;16.80;82.00
55785;DHT22;41709;52.536;5.688;2023-08-08T08:40:37;16.90;82.80
55785;DHT22;41709;52.536;5.688;2023-08-08T08:43:04;16.80;82.90
55785;DHT22;41709;52.536;5.688;2023-08-08T08:45:31;16.90;83.40
55785;DHT22;41709;52.536;5.688;2023-08-08T08:47:57;16.90;82.20
55785;DHT22;41709;52.536;5.688;2023-08-08T08:50:27;16.90;82.00
55785;DHT22;41709;52.536;5.688;2023-08-08T08:52:54;16.90;83.60
55785;DHT22;41709;52.536;5.688;2023-08-08T08:55:21;17.00;82.30
55785;DHT22;41709;52.536;5.688;2023-08-08T08:57:48;17.00;82.80
55785;DHT22;41709;52.536;5.688;2023-08-08T09:00:14;17.10;83.30
55785;DHT22;41709;52.536;5.688;2023-08-08T09:02:41;17.10;84.10
55785;DHT22;41709;52.536;5.688;2023-08-08T09:05:07;17.20;83.70
55785;DHT22;41709;52.536;5.688;2023-08-08T09:07:34;17.30;83.60
55785;DHT22;41709;52.536;5.688;2023-08-08T09:10:01;17.30;83.80
55785;DHT22;41709;52.536;5.688;2023-08-08T09:12:27;17.30;83.60
55785;DHT22;41709;52.536;5.688;2023-08-08T09:14:56;17.20;83.10
55785;DHT22;41709;52.536;5.688;2023-08-08T09:17:22;17.20;82.90
55785;DHT22;41709;52.536;5.688;2023-08-08T09:19:49;17.30;82.90
55785;DHT22;41709;52.536;5.688;2023-08-08T09:22:15;17.20;82.30
55785;DHT22;41709;52.536;5.688;2023-08-08T09:24:41;17.20;83.90
55785;DHT22;41709;52.536;5.688;2023-08-08T09:27:08;17.10;84.70
55785;DHT22;41709;52.536;5.688;2023-08-08T09:29:33;17.10;85.80
55785;DHT22;41709;52.536;5.688;2023-08-08T09:32:02;17.10;86.60
55785;DHT22;41709;52.536;5.688;2023-08-08T09:34:28;17.10;85.50
55785;DHT22;41709;52.536;5.688;2023-08-08T09:36:54;17.10;84.50
55785;DHT22;41709;52.536;5.688;2023-08-08T09:39:20;17.20;85.30
55785;DHT22;41709;52.536;5.688;2023-08-08T09:41:46;17.30;84.50
55785;DHT22;41709;52.536;5.688;2023-08-08T09:44:12;17.30;85.60
55785;DHT22;41709;52.536;5.688;2023-08-08T09:46:39;17.30;84.00
55785;DHT22;41709;52.536;5.688;2023-08-08T09:49:05;17.30;84.40
55785;DHT22;41709;52.536;5.688;2023-08-08T09:51:31;17.40;83.30
55785;DHT22;41709;52.536;5.688;2023-08-08T09:53:59;17.40;83.30
55785;DHT22;41709;52.536;5.688;2023-08-08T09:56:25;17.40;82.90
55785;DHT22;41709;52.536;5.688;2023-08-08T09:58:52;17.50;83.10
55785;DHT22;41709;52.536;5.688;2023-08-08T10:01:19;17.40;82.80
55785;DHT22;41709;52.536;5.688;2023-08-08T10:03:46;17.30;83.80
55785;DHT22;41709;52.536;5.688;2023-08-08T10:06:12;17.20;87.10
55785;DHT22;41709;52.536;5.688;2023-08-08T10:08:38;17.00;87.90
55785;DHT22;41709;52.536;5.688;2023-08-08T10:11:05;16.70;89.10
55785;DHT22;41709;52.536;5.688;2023-08-08T10:13:32;16.60;89.30
55785;DHT22;41709;52.536;5.688;2023-08-08T10:16:04;16.60;90.10
55785;DHT22;41709;52.536;5.688;2023-08-08T10:18:33;16.60;89.40
55785;DHT22;41709;52.536;5.688;2023-08-08T10:20:58;16.50;88.80
55785;DHT22;41709;52.536;5.688;2023-08-08T10:23:25;16.40;89.50
55785;DHT22;41709;52.536;5.688;2023-08-08T10:25:51;16.40;89.70
55785;DHT22;41709;52.536;5.688;2023-08-08T10:28:19;16.50;88.90
55785;DHT22;41709;52.536;5.688;2023-08-08T10:30:56;16.50;88.70
55785;DHT22;41709;52.536;5.688;2023-08-08T10:33:45;16.50;88.30
55785;DHT22;41709;52.536;5.688;2023-08-08T10:36:10;16.60;87.10
55785;DHT22;41709;52.536;5.688;2023-08-08T10:38:43;16.60;87.20
55785;DHT22;41709;52.536;5.688;2023-08-08T10:41:14;16.80;88.20
55785;DHT22;41709;52.536;5.688;2023-08-08T10:43:54;17.00;88.00
55785;DHT22;41709;52.536;5.688;2023-08-08T10:46:29;17.00;86.00
55785;DHT22;41709;52.536;5.688;2023-08-08T10:49:00;17.10;85.90
55785;DHT22;41709;52.536;5.688;2023-08-08T10:51:53;17.20;84.90
55785;DHT22;41709;52.536;5.688;2023-08-08T10:54:22;17.30;83.20
55785;DHT22;41709;52.536;5.688;2023-08-08T10:56:55;17.20;82.50
55785;DHT22;41709;52.536;5.688;2023-08-08T10:59:23;17.20;83.20
55785;DHT22;41709;52.536;5.688;2023-08-08T11:01:51;17.20;83.30
55785;DHT22;41709;52.536;5.688;2023-08-08T11:04:19;17.30;84.00
55785;DHT22;41709;52.536;5.688;2023-08-08T11:06:45;17.30;84.10
55785;DHT22;41709;52.536;5.688;2023-08-08T11:09:13;17.30;84.40
55785;DHT22;41709;52.536;5.688;2023-08-08T11:11:40;17.30;83.50
55785;DHT22;41709;52.536;5.688;2023-08-08T11:14:14;17.30;83.40
55785;DHT22;41709;52.536;5.688;2023-08-08T11:16:40;17.30;84.70
55785;DHT22;41709;52.536;5.688;2023-08-08T11:19:06;17.30;85.30
55785;DHT22;41709;52.536;5.688;2023-08-08T11:21:39;17.50;84.80
55785;DHT22;41709;52.536;5.688;2023-08-08T11:24:06;17.60;82.60
55785;DHT22;41709;52.536;5.688;2023-08-08T11:26:33;17.60;82.80
55785;DHT22;41709;52.536;5.688;2023-08-08T11:29:03;17.60;81.60
55785;DHT22;41709;52.536;5.688;2023-08-08T11:31:30;17.60;82.60
55785;DHT22;41709;52.536;5.688;2023-08-08T11:33:56;17.60;82.30
55785;DHT22;41709;52.536;5.688;2023-08-08T11:36:22;17.60;82.00
55785;DHT22;41709;52.536;5.688;2023-08-08T11:38:50;17.60;81.60
55785;DHT22;41709;52.536;5.688;2023-08-08T11:41:19;17.60;81.10
55785;DHT22;41709;52.536;5.688;2023-08-08T11:43:46;17.70;81.70
55785;DHT22;41709;52.536;5.688;2023-08-08T11:46:13;17.80;81.30
55785;DHT22;41709;52.536;5.688;2023-08-08T11:48:39;17.90;79.60
55785;DHT22;41709;52.536;5.688;2023-08-08T11:51:06;18.00;79.10
55785;DHT22;41709;52.536;5.688;2023-08-08T11:53:32;18.00;79.10
55785;DHT22;41709;52.536;5.688;2023-08-08T11:55:59;18.00;78.70
55785;DHT22;41709;52.536;5.688;2023-08-08T11:58:26;18.10;78.60
55785;DHT22;41709;52.536;5.688;2023-08-08T12:00:52;18.20;78.20
55785;DHT22;41709;52.536;5.688;2023-08-08T12:03:20;18.20;78.20
55785;DHT22;41709;52.536;5.688;2023-08-08T12:05:47;18.20;77.80
55785;DHT22;41709;52.536;5.688;2023-08-08T12:08:13;18.10;77.00
55785;DHT22;41709;52.536;5.688;2023-08-08T12:10:39;18.10;78.20
55785;DHT22;41709;52.536;5.688;2023-08-08T12:13:05;18.20;78.50
55785;DHT22;41709;52.536;5.688;2023-08-08T12:15:35;18.10;76.80
55785;DHT22;41709;52.536;5.688;2023-08-08T12:18:01;18.10;77.40
55785;DHT22;41709;52.536;5.688;2023-08-08T12:20:28;18.00;78.80
55785;DHT22;41709;52.536;5.688;2023-08-08T12:22:55;17.90;79.60
55785;DHT22;41709;52.536;5.688;2023-08-08T12:25:20;17.90;79.10
55785;DHT22;41709;52.536;5.688;2023-08-08T12:27:46;17.90;79.20
55785;DHT22;41709;52.536;5.688;2023-08-08T12:30:12;18.00;80.30
55785;DHT22;41709;52.536;5.688;2023-08-08T12:32:37;18.20;80.20
55785;DHT22;41709;52.536;5.688;2023-08-08T12:35:03;18.30;79.90
55785;DHT22;41709;52.536;5.688;2023-08-08T12:37:29;18.50;80.00
55785;DHT22;41709;52.536;5.688;2023-08-08T12:39:55;18.70;78.60
55785;DHT22;41709;52.536;5.688;2023-08-08T12:42:22;18.70;79.20
55785;DHT22;41709;52.536;5.688;2023-08-08T12:44:47;18.50;78.50
55785;DHT22;41709;52.536;5.688;2023-08-08T12:47:16;18.50;78.00
55785;DHT22;41709;52.536;5.688;2023-08-08T12:49:42;18.60;78.40
55785;DHT22;41709;52.536;5.688;2023-08-08T12:52:08;18.70;78.40
55785;DHT22;41709;52.536;5.688;2023-08-08T12:54:33;18.90;78.80
55785;DHT22;41709;52.536;5.688;2023-08-08T12:56:59;18.90;78.30
55785;DHT22;41709;52.536;5.688;2023-08-08T12:59:24;18.90;78.90
55785;DHT22;41709;52.536;5.688;2023-08-08T13:01:50;19.00;76.80
55785;DHT22;41709;52.536;5.688;2023-08-08T13:04:16;18.90;77.10
55785;DHT22;41709;52.536;5.688;2023-08-08T13:06:41;18.90;76.80
55785;DHT22;41709;52.536;5.688;2023-08-08T13:09:07;18.80;76.70
55785;DHT22;41709;52.536;5.688;2023-08-08T13:11:32;18.80;76.40
55785;DHT22;41709;52.536;5.688;2023-08-08T13:13:58;18.60;76.20
55785;DHT22;41709;52.536;5.688;2023-08-08T13:16:23;18.60;77.00
55785;DHT22;41709;52.536;5.688;2023-08-08T13:18:49;18.60;77.70
55785;DHT22;41709;52.536;5.688;2023-08-08T13:21:15;18.50;78.70
55785;DHT22;41709;52.536;5.688;2023-08-08T13:23:41;18.50;79.20
55785;DHT22;41709;52.536;5.688;2023-08-08T13:26:14;18.60;79.10
55785;DHT22;41709;52.536;5.688;2023-08-08T13:28:39;18.70;78.90
55785;DHT22;41709;52.536;5.688;2023-08-08T13:31:05;18.80;78.00
55785;DHT22;41709;52.536;5.688;2023-08-08T13:33:32;18.80;77.40
55785;DHT22;41709;52.536;5.688;2023-08-08T13:35:59;18.80;78.00
55785;DHT22;41709;52.536;5.688;2023-08-08T13:38:25;18.90;77.80
55785;DHT22;41709;52.536;5.688;2023-08-08T13:40:51;18.90;78.70
55785;DHT22;41709;52.536;5.688;2023-08-08T13:43:16;18.70;78.20
55785;DHT22;41709;52.536;5.688;2023-08-08T13:45:42;18.70;78.20
55785;DHT22;41709;52.536;5.688;2023-08-08T13:48:07;18.60;75.50
55785;DHT22;41709;52.536;5.688;2023-08-08T13:50:33;18.60;76.70
55785;DHT22;41709;52.536;5.688;2023-08-08T13:52:58;18.60;77.00
55785;DHT22;41709;52.536;5.688;2023-08-08T13:55:24;18.70;75.70
55785;DHT22;41709;52.536;5.688;2023-08-08T13:57:52;18.70;76.00
55785;DHT22;41709;52.536;5.688;2023-08-08T14:00:18;18.60;74.60
55785;DHT22;41709;52.536;5.688;2023-08-08T14:02:43;18.60;75.30
55785;DHT22;41709;52.536;5.688;2023-08-08T14:05:09;18.60;75.80
55785;DHT22;41709;52.536;5.688;2023-08-08T14:07:35;18.50;76.60
55785;DHT22;41709;52.536;5.688;2023-08-08T14:10:02;18.50;77.60
55785;DHT22;41709;52.536;5.688;2023-08-08T14:12:29;18.50;76.60
55785;DHT22;41709;52.536;5.688;2023-08-08T14:14:55;18.50;76.80
55785;DHT22;41709;52.536;5.688;2023-08-08T14:17:20;18.40;76.40
55785;DHT22;41709;52.536;5.688;2023-08-08T14:19:46;18.40;76.70
55785;DHT22;41709;52.536;5.688;2023-08-08T14:22:11;18.30;78.70
55785;DHT22;41709;52.536;5.688;2023-08-08T14:24:37;18.30;78.80
55785;DHT22;41709;52.536;5.688;2023-08-08T14:27:03;18.20;77.60
55785;DHT22;41709;52.536;5.688;2023-08-08T14:29:28;18.10;78.20
55785;DHT22;41709;52.536;5.688;2023-08-08T14:31:54;18.10;78.90
55785;DHT22;41709;52.536;5.688;2023-08-08T14:34:34;18.00;80.10
55785;DHT22;41709;52.536;5.688;2023-08-08T14:37:00;17.80;79.70
55785;DHT22;41709;52.536;5.688;2023-08-08T14:39:27;17.80;80.00
55785;DHT22;41709;52.536;5.688;2023-08-08T14:41:52;17.50;81.20
55785;DHT22;41709;52.536;5.688;2023-08-08T14:44:18;17.50;81.60
55785;DHT22;41709;52.536;5.688;2023-08-08T14:46:44;17.60;81.90
55785;DHT22;41709;52.536;5.688;2023-08-08T14:49:09;17.70;82.20
55785;DHT22;41709;52.536;5.688;2023-08-08T14:51:35;17.80;80.70
55785;DHT22;41709;52.536;5.688;2023-08-08T14:54:01;17.90;81.00
55785;DHT22;41709;52.536;5.688;2023-08-08T14:56:27;17.90;80.50
55785;DHT22;41709;52.536;5.688;2023-08-08T14:58:52;18.00;79.60
55785;DHT22;41709;52.536;5.688;2023-08-08T15:01:18;18.10;79.20
55785;DHT22;41709;52.536;5.688;2023-08-08T15:03:44;18.10;79.20
55785;DHT22;41709;52.536;5.688;2023-08-08T15:06:10;18.20;79.40
55785;DHT22;41709;52.536;5.688;2023-08-08T15:08:35;18.30;78.90
55785;DHT22;41709;52.536;5.688;2023-08-08T15:11:01;18.30;79.30
55785;DHT22;41709;52.536;5.688;2023-08-08T15:13:26;18.50;79.50
55785;DHT22;41709;52.536;5.688;2023-08-08T15:15:52;18.60;79.30
55785;DHT22;41709;52.536;5.688;2023-08-08T15:18:18;18.60;78.50
55785;DHT22;41709;52.536;5.688;2023-08-08T15:20:43;18.60;78.10
55785;DHT22;41709;52.536;5.688;2023-08-08T15:23:09;18.70;78.80
55785;DHT22;41709;52.536;5.688;2023-08-08T15:25:36;18.70;77.00